sensor_id;sensor_type;location;lat;lon;timestamp;temperature;humidity
23520;DHT22;11936;50.820;4.336;2022-08-25T00:02:15;25.70;96.60
23520;DHT22;11936;50.820;4.336;2022-08-25T00:04:42;25.70;96.70
23520;DHT22;11936;50.820;4.336;2022-08-25T00:07:12;25.70;96.80
23520;DHT22;11936;50.820;4.336;2022-08-25T00:10:39;25.70;96.90
23520;DHT22;11936;50.820;4.336;2022-08-25T00:13:30;25.70;97.00
23520;DHT22;11936;50.820;4.336;2022-08-25T00:16:35;25.60;97.10
23520;DHT22;11936;50.820;4.336;2022-08-25T00:19:06;25.50;97.20
23520;DHT22;11936;50.820;4.336;2022-08-25T00:21:53;25.50;97.50
23520;DHT22;11936;50.820;4.336;2022-08-25T00:24:42;25.50;97.50
23520;DHT22;11936;50.820;4.336;2022-08-25T00:27:23;25.50;97.50
23520;DHT22;11936;50.820;4.336;2022-08-25T00:29:48;25.50;97.60
23520;DHT22;11936;50.820;4.336;2022-08-25T00:32:21;25.50;97.70
23520;DHT22;11936;50.820;4.336;2022-08-25T00:34:55;25.50;97.60
23520;DHT22;11936;50.820;4.336;2022-08-25T00:37:30;25.50;97.60
23520;DHT22;11936;50.820;4.336;2022-08-25T00:39:56;25.50;97.70
23520;DHT22;11936;50.820;4.336;2022-08-25T00:42:28;25.50;97.70
23520;DHT22;11936;50.820;4.336;2022-08-25T00:44:56;25.40;97.80
23520;DHT22;11936;50.820;4.336;2022-08-25T00:47:24;25.40;97.80
23520;DHT22;11936;50.820;4.336;2022-08-25T00:49:58;25.40;97.80
23520;DHT22;11936;50.820;4.336;2022-08-25T00:52:55;25.40;98.00
23520;DHT22;11936;50.820;4.336;2022-08-25T00:55:33;25.30;98.10
23520;DHT22;11936;50.820;4.336;2022-08-25T00:58:22;25.30;98.20
23520;DHT22;11936;50.820;4.336;2022-08-25T01:00:53;25.20;98.20
23520;DHT22;11936;50.820;4.336;2022-08-25T01:03:22;25.20;98.40
23520;DHT22;11936;50.820;4.336;2022-08-25T01:05:48;25.20;98.40
23520;DHT22;11936;50.820;4.336;2022-08-25T01:08:16;25.20;98.30
23520;DHT22;11936;50.820;4.336;2022-08-25T01:10:50;25.20;98.20
23520;DHT22;11936;50.820;4.336;2022-08-25T01:13:25;25.20;98.40
23520;DHT22;11936;50.820;4.336;2022-08-25T01:15:55;25.10;98.50
23520;DHT22;11936;50.820;4.336;2022-08-25T01:18:22;25.10;98.60
23520;DHT22;11936;50.820;4.336;2022-08-25T01:20:56;25.10;98.50
23520;DHT22;11936;50.820;4.336;2022-08-25T01:23:24;25.00;98.80
23520;DHT22;11936;50.820;4.336;2022-08-25T01:26:14;25.00;98.80
23520;DHT22;11936;50.820;4.336;2022-08-25T01:28:46;25.00;98.90
23520;DHT22;11936;50.820;4.336;2022-08-25T01:31:32;25.00;99.00
23520;DHT22;11936;50.820;4.336;2022-08-25T01:33:58;24.90;99.00
23520;DHT22;11936;50.820;4.336;2022-08-25T01:36:29;24.90;99.10
23520;DHT22;11936;50.820;4.336;2022-08-25T01:39:03;25.00;99.10
23520;DHT22;11936;50.820;4.336;2022-08-25T01:44:42;25.00;99.10
23520;DHT22;11936;50.820;4.336;2022-08-25T01:47:11;25.00;99.10
23520;DHT22;11936;50.820;4.336;2022-08-25T01:49:39;25.00;99.30
23520;DHT22;11936;50.820;4.336;2022-08-25T01:52:18;25.00;99.00
23520;DHT22;11936;50.820;4.336;2022-08-25T01:54:52;25.00;99.00
23520;DHT22;11936;50.820;4.336;2022-08-25T01:57:41;24.90;99.00
23520;DHT22;11936;50.820;4.336;2022-08-25T02:00:18;24.90;99.20
23520;DHT22;11936;50.820;4.336;2022-08-25T02:03:06;24.90;99.20
23520;DHT22;11936;50.820;4.336;2022-08-25T02:05:36;24.80;99.20
23520;DHT22;11936;50.820;4.336;2022-08-25T02:08:08;24.80;99.30
23520;DHT22;11936;50.820;4.336;2022-08-25T02:10:53;24.80;99.40
23520;DHT22;11936;50.820;4.336;2022-08-25T02:13:20;24.80;99.40
23520;DHT22;11936;50.820;4.336;2022-08-25T02:15:53;24.80;99.30
23520;DHT22;11936;50.820;4.336;2022-08-25T02:18:20;24.80;99.40
23520;DHT22;11936;50.820;4.336;2022-08-25T02:20:47;24.80;99.40
23520;DHT22;11936;50.820;4.336;2022-08-25T02:23:19;24.80;99.30
23520;DHT22;11936;50.820;4.336;2022-08-25T02:25:53;24.80;99.30
23520;DHT22;11936;50.820;4.336;2022-08-25T02:28:26;24.80;99.50
23520;DHT22;11936;50.820;4.336;2022-08-25T02:30:52;24.70;99.20
23520;DHT22;11936;50.820;4.336;2022-08-25T02:33:19;24.70;99.30
23520;DHT22;11936;50.820;4.336;2022-08-25T02:35:46;24.60;99.20
23520;DHT22;11936;50.820;4.336;2022-08-25T02:38:13;24.50;99.30
23520;DHT22;11936;50.820;4.336;2022-08-25T02:40:44;24.40;99.40
23520;DHT22;11936;50.820;4.336;2022-08-25T02:43:11;24.40;99.40
23520;DHT22;11936;50.820;4.336;2022-08-25T02:45:38;24.40;99.40
23520;DHT22;11936;50.820;4.336;2022-08-25T02:48:07;24.40;99.30
23520;DHT22;11936;50.820;4.336;2022-08-25T02:50:32;24.40;99.30
23520;DHT22;11936;50.820;4.336;2022-08-25T02:53:00;24.40;99.00
23520;DHT22;11936;50.820;4.336;2022-08-25T02:55:27;24.40;98.90
23520;DHT22;11936;50.820;4.336;2022-08-25T02:57:52;24.40;98.90
23520;DHT22;11936;50.820;4.336;2022-08-25T03:00:20;24.40;99.00
23520;DHT22;11936;50.820;4.336;2022-08-25T03:02:46;24.40;99.10
23520;DHT22;11936;50.820;4.336;2022-08-25T03:05:13;24.30;99.10
23520;DHT22;11936;50.820;4.336;2022-08-25T03:07:41;24.30;99.20
23520;DHT22;11936;50.820;4.336;2022-08-25T03:10:11;24.30;99.30
23520;DHT22;11936;50.820;4.336;2022-08-25T03:12:39;24.10;99.30
23520;DHT22;11936;50.820;4.336;2022-08-25T03:15:08;24.10;99.50
23520;DHT22;11936;50.820;4.336;2022-08-25T03:17:34;24.20;99.50
23520;DHT22;11936;50.820;4.336;2022-08-25T03:20:02;24.20;99.40
23520;DHT22;11936;50.820;4.336;2022-08-25T03:22:27;24.20;99.40
23520;DHT22;11936;50.820;4.336;2022-08-25T03:24:53;24.20;99.30
23520;DHT22;11936;50.820;4.336;2022-08-25T03:27:39;24.20;99.30
23520;DHT22;11936;50.820;4.336;2022-08-25T03:30:05;24.10;99.10
23520;DHT22;11936;50.820;4.336;2022-08-25T03:32:31;24.10;99.00
23520;DHT22;11936;50.820;4.336;2022-08-25T03:34:57;24.10;98.30
23520;DHT22;11936;50.820;4.336;2022-08-25T03:37:22;24.10;97.50
23520;DHT22;11936;50.820;4.336;2022-08-25T03:39:48;24.10;97.00
23520;DHT22;11936;50.820;4.336;2022-08-25T03:42:13;24.10;96.50
23520;DHT22;11936;50.820;4.336;2022-08-25T03:44:39;24.10;96.40
23520;DHT22;11936;50.820;4.336;2022-08-25T03:47:05;24.20;95.80
23520;DHT22;11936;50.820;4.336;2022-08-25T03:49:31;24.20;95.50
23520;DHT22;11936;50.820;4.336;2022-08-25T03:51:59;24.20;94.90
23520;DHT22;11936;50.820;4.336;2022-08-25T03:54:26;24.20;94.80
23520;DHT22;11936;50.820;4.336;2022-08-25T03:56:52;24.30;94.70
23520;DHT22;11936;50.820;4.336;2022-08-25T03:59:21;24.40;94.20
23520;DHT22;11936;50.820;4.336;2022-08-25T04:01:46;24.40;93.90
23520;DHT22;11936;50.820;4.336;2022-08-25T04:04:14;24.30;93.40
23520;DHT22;11936;50.820;4.336;2022-08-25T04:06:41;24.30;93.20
23520;DHT22;11936;50.820;4.336;2022-08-25T04:09:08;24.30;92.70
23520;DHT22;11936;50.820;4.336;2022-08-25T04:11:35;24.30;92.30
23520;DHT22;11936;50.820;4.336;2022-08-25T04:14:01;24.40;92.10
23520;DHT22;11936;50.820;4.336;2022-08-25T04:16:30;24.40;91.70
23520;DHT22;11936;50.820;4.336;2022-08-25T04:18:58;24.50;91.50
23520;DHT22;11936;50.820;4.336;2022-08-25T04:21:25;24.50;91.40
23520;DHT22;11936;50.820;4.336;2022-08-25T04:23:51;24.50;91.50
23520;DHT22;11936;50.820;4.336;2022-08-25T04:26:26;24.50;91.70
23520;DHT22;11936;50.820;4.336;2022-08-25T04:28:53;24.50;91.50
23520;DHT22;11936;50.820;4.336;2022-08-25T04:31:20;24.50;91.50
23520;DHT22;11936;50.820;4.336;2022-08-25T04:33:46;24.50;91.50
23520;DHT22;11936;50.820;4.336;2022-08-25T04:36:13;24.40;90.60
23520;DHT22;11936;50.820;4.336;2022-08-25T04:38:40;24.40;90.80
23520;DHT22;11936;50.820;4.336;2022-08-25T04:41:07;24.40;91.00
23520;DHT22;11936;50.820;4.336;2022-08-25T04:43:34;24.40;91.20
23520;DHT22;11936;50.820;4.336;2022-08-25T04:46:05;24.30;90.70
23520;DHT22;11936;50.820;4.336;2022-08-25T04:48:31;24.30;90.50
23520;DHT22;11936;50.820;4.336;2022-08-25T04:50:57;24.30;90.80
23520;DHT22;11936;50.820;4.336;2022-08-25T04:53:22;24.30;90.50
23520;DHT22;11936;50.820;4.336;2022-08-25T04:55:48;24.40;90.40
23520;DHT22;11936;50.820;4.336;2022-08-25T04:58:14;24.40;90.50
23520;DHT22;11936;50.820;4.336;2022-08-25T05:00:41;24.40;90.20
23520;DHT22;11936;50.820;4.336;2022-08-25T05:03:08;24.40;90.10
23520;DHT22;11936;50.820;4.336;2022-08-25T05:05:37;24.40;90.10
23520;DHT22;11936;50.820;4.336;2022-08-25T05:08:04;24.40;90.10
23520;DHT22;11936;50.820;4.336;2022-08-25T05:10:30;24.50;89.20
23520;DHT22;11936;50.820;4.336;2022-08-25T05:12:55;24.50;88.60
23520;DHT22;11936;50.820;4.336;2022-08-25T05:15:21;24.50;89.10
23520;DHT22;11936;50.820;4.336;2022-08-25T05:18:05;24.50;89.10
23520;DHT22;11936;50.820;4.336;2022-08-25T05:20:31;24.50;88.40
23520;DHT22;11936;50.820;4.336;2022-08-25T05:22:57;24.50;88.50
23520;DHT22;11936;50.820;4.336;2022-08-25T05:25:23;24.60;89.70
23520;DHT22;11936;50.820;4.336;2022-08-25T05:27:49;24.60;89.80
23520;DHT22;11936;50.820;4.336;2022-08-25T05:30:15;24.70;89.00
23520;DHT22;11936;50.820;4.336;2022-08-25T05:32:40;24.70;87.90
23520;DHT22;11936;50.820;4.336;2022-08-25T05:35:07;24.70;87.60
23520;DHT22;11936;50.820;4.336;2022-08-25T05:37:33;24.80;87.50
23520;DHT22;11936;50.820;4.336;2022-08-25T05:39:59;24.70;87.20
23520;DHT22;11936;50.820;4.336;2022-08-25T05:42:25;24.70;87.80
23520;DHT22;11936;50.820;4.336;2022-08-25T05:44:53;24.70;87.50
23520;DHT22;11936;50.820;4.336;2022-08-25T05:47:18;24.80;88.00
23520;DHT22;11936;50.820;4.336;2022-08-25T05:49:44;24.80;87.60
23520;DHT22;11936;50.820;4.336;2022-08-25T05:52:09;24.80;87.50
23520;DHT22;11936;50.820;4.336;2022-08-25T05:54:38;24.80;87.20
23520;DHT22;11936;50.820;4.336;2022-08-25T05:57:05;24.80;87.00
23520;DHT22;11936;50.820;4.336;2022-08-25T05:59:30;24.90;88.30
23520;DHT22;11936;50.820;4.336;2022-08-25T06:01:56;25.00;87.30
23520;DHT22;11936;50.820;4.336;2022-08-25T06:04:40;25.00;88.10
23520;DHT22;11936;50.820;4.336;2022-08-25T06:07:06;25.00;87.60
23520;DHT22;11936;50.820;4.336;2022-08-25T06:09:32;25.00;87.20
23520;DHT22;11936;50.820;4.336;2022-08-25T06:11:57;25.00;85.90
23520;DHT22;11936;50.820;4.336;2022-08-25T06:14:23;25.10;87.10
23520;DHT22;11936;50.820;4.336;2022-08-25T06:16:49;25.20;86.40
23520;DHT22;11936;50.820;4.336;2022-08-25T06:19:16;25.10;87.70
23520;DHT22;11936;50.820;4.336;2022-08-25T06:21:42;25.20;88.10
23520;DHT22;11936;50.820;4.336;2022-08-25T06:24:09;25.10;88.20
23520;DHT22;11936;50.820;4.336;2022-08-25T06:26:35;25.20;88.30
23520;DHT22;11936;50.820;4.336;2022-08-25T06:29:02;25.20;89.40
23520;DHT22;11936;50.820;4.336;2022-08-25T06:31:28;25.10;89.80
23520;DHT22;11936;50.820;4.336;2022-08-25T06:33:54;25.10;90.00
23520;DHT22;11936;50.820;4.336;2022-08-25T06:36:20;25.20;90.30
23520;DHT22;11936;50.820;4.336;2022-08-25T06:38:46;25.20;90.20
23520;DHT22;11936;50.820;4.336;2022-08-25T06:41:12;25.30;90.10
23520;DHT22;11936;50.820;4.336;2022-08-25T06:43:40;25.40;90.60
23520;DHT22;11936;50.820;4.336;2022-08-25T06:46:14;25.40;89.90
23520;DHT22;11936;50.820;4.336;2022-08-25T06:48:40;25.50;88.80
23520;DHT22;11936;50.820;4.336;2022-08-25T06:51:08;25.50;89.80
23520;DHT22;11936;50.820;4.336;2022-08-25T06:53:34;25.60;90.00
23520;DHT22;11936;50.820;4.336;2022-08-25T06:56:00;25.60;90.10
23520;DHT22;11936;50.820;4.336;2022-08-25T06:58:26;25.60;89.50
23520;DHT22;11936;50.820;4.336;2022-08-25T07:00:52;25.60;90.40
23520;DHT22;11936;50.820;4.336;2022-08-25T07:03:18;25.70;90.70
23520;DHT22;11936;50.820;4.336;2022-08-25T07:05:54;25.60;90.20
23520;DHT22;11936;50.820;4.336;2022-08-25T07:08:21;25.80;90.00
23520;DHT22;11936;50.820;4.336;2022-08-25T07:10:48;25.90;90.70
23520;DHT22;11936;50.820;4.336;2022-08-25T07:13:14;25.90;89.90
23520;DHT22;11936;50.820;4.336;2022-08-25T07:15:41;25.90;89.80
23520;DHT22;11936;50.820;4.336;2022-08-25T07:18:07;25.90;90.00
23520;DHT22;11936;50.820;4.336;2022-08-25T07:20:34;25.90;87.70
23520;DHT22;11936;50.820;4.336;2022-08-25T07:23:00;25.90;87.00
23520;DHT22;11936;50.820;4.336;2022-08-25T07:25:25;25.90;86.80
23520;DHT22;11936;50.820;4.336;2022-08-25T07:27:51;25.90;88.00
23520;DHT22;11936;50.820;4.336;2022-08-25T07:30:17;25.90;85.50
23520;DHT22;11936;50.820;4.336;2022-08-25T07:32:43;26.00;84.50
23520;DHT22;11936;50.820;4.336;2022-08-25T07:35:09;26.00;84.20
23520;DHT22;11936;50.820;4.336;2022-08-25T07:37:51;26.00;84.60
23520;DHT22;11936;50.820;4.336;2022-08-25T07:40:26;26.00;85.40
23520;DHT22;11936;50.820;4.336;2022-08-25T07:42:55;26.10;86.60
23520;DHT22;11936;50.820;4.336;2022-08-25T07:45:23;26.10;85.20
23520;DHT22;11936;50.820;4.336;2022-08-25T07:48:10;26.10;84.70
23520;DHT22;11936;50.820;4.336;2022-08-25T07:50:39;26.20;84.60
23520;DHT22;11936;50.820;4.336;2022-08-25T07:53:07;26.20;85.20
23520;DHT22;11936;50.820;4.336;2022-08-25T07:55:34;26.20;85.80
23520;DHT22;11936;50.820;4.336;2022-08-25T07:58:02;26.20;85.00
23520;DHT22;11936;50.820;4.336;2022-08-25T08:00:28;26.20;85.00
23520;DHT22;11936;50.820;4.336;2022-08-25T08:02:57;26.10;84.80
23520;DHT22;11936;50.820;4.336;2022-08-25T08:05:24;26.20;86.30
23520;DHT22;11936;50.820;4.336;2022-08-25T08:07:50;26.20;85.50
23520;DHT22;11936;50.820;4.336;2022-08-25T08:10:16;26.20;85.00
23520;DHT22;11936;50.820;4.336;2022-08-25T08:12:42;26.20;86.00
23520;DHT22;11936;50.820;4.336;2022-08-25T08:15:09;26.30;86.40
23520;DHT22;11936;50.820;4.336;2022-08-25T08:17:34;26.30;86.50
23520;DHT22;11936;50.820;4.336;2022-08-25T08:20:01;26.40;86.20
23520;DHT22;11936;50.820;4.336;2022-08-25T08:22:28;26.50;85.70
23520;DHT22;11936;50.820;4.336;2022-08-25T08:24:54;26.50;84.90
23520;DHT22;11936;50.820;4.336;2022-08-25T08:27:20;26.50;85.10
23520;DHT22;11936;50.820;4.336;2022-08-25T08:29:45;26.50;85.70
23520;DHT22;11936;50.820;4.336;2022-08-25T08:32:12;26.60;84.70
23520;DHT22;11936;50.820;4.336;2022-08-25T08:34:39;26.60;84.80
23520;DHT22;11936;50.820;4.336;2022-08-25T08:37:06;26.70;84.60
23520;DHT22;11936;50.820;4.336;2022-08-25T08:39:32;26.80;84.50
23520;DHT22;11936;50.820;4.336;2022-08-25T08:44:59;26.90;83.80
23520;DHT22;11936;50.820;4.336;2022-08-25T08:50:24;27.00;83.90
23520;DHT22;11936;50.820;4.336;2022-08-25T08:55:47;27.10;81.30
23520;DHT22;11936;50.820;4.336;2022-08-25T08:58:21;27.10;81.10
23520;DHT22;11936;50.820;4.336;2022-08-25T09:00:51;27.20;80.80
23520;DHT22;11936;50.820;4.336;2022-08-25T09:03:37;27.20;81.50
23520;DHT22;11936;50.820;4.336;2022-08-25T09:06:13;27.20;80.40
23520;DHT22;11936;50.820;4.336;2022-08-25T09:08:42;27.30;79.30
23520;DHT22;11936;50.820;4.336;2022-08-25T09:27:46;27.80;77.10
23520;DHT22;11936;50.820;4.336;2022-08-25T09:30:19;27.80;77.30
23520;DHT22;11936;50.820;4.336;2022-08-25T09:32:51;28.00;77.10
23520;DHT22;11936;50.820;4.336;2022-08-25T09:35:27;28.00;76.70
23520;DHT22;11936;50.820;4.336;2022-08-25T09:38:12;28.00;75.80
23520;DHT22;11936;50.820;4.336;2022-08-25T09:40:50;28.00;75.10
23520;DHT22;11936;50.820;4.336;2022-08-25T09:43:22;28.10;75.40
23520;DHT22;11936;50.820;4.336;2022-08-25T09:45:56;28.20;74.00
23520;DHT22;11936;50.820;4.336;2022-08-25T09:50:57;28.40;72.80
23520;DHT22;11936;50.820;4.336;2022-08-25T09:53:24;28.40;71.80
23520;DHT22;11936;50.820;4.336;2022-08-25T09:55:59;28.50;71.40
23520;DHT22;11936;50.820;4.336;2022-08-25T09:58:28;28.50;71.50
23520;DHT22;11936;50.820;4.336;2022-08-25T10:01:16;28.50;72.20
23520;DHT22;11936;50.820;4.336;2022-08-25T10:04:03;28.60;71.70
23520;DHT22;11936;50.820;4.336;2022-08-25T10:06:49;28.70;71.50
23520;DHT22;11936;50.820;4.336;2022-08-25T10:09:30;28.70;70.00
23520;DHT22;11936;50.820;4.336;2022-08-25T10:12:00;28.80;70.30
23520;DHT22;11936;50.820;4.336;2022-08-25T10:14:36;28.90;69.50
23520;DHT22;11936;50.820;4.336;2022-08-25T10:19:37;29.00;68.70
23520;DHT22;11936;50.820;4.336;2022-08-25T10:24:35;29.10;68.40
23520;DHT22;11936;50.820;4.336;2022-08-25T10:32:18;29.10;68.60
23520;DHT22;11936;50.820;4.336;2022-08-25T10:34:51;29.20;68.30
23520;DHT22;11936;50.820;4.336;2022-08-25T10:37:46;29.20;68.50
23520;DHT22;11936;50.820;4.336;2022-08-25T10:40:27;29.40;68.70
23520;DHT22;11936;50.820;4.336;2022-08-25T10:45:55;29.50;68.20
23520;DHT22;11936;50.820;4.336;2022-08-25T10:56:42;29.60;67.20
23520;DHT22;11936;50.820;4.336;2022-08-25T11:02:20;29.70;67.00
23520;DHT22;11936;50.820;4.336;2022-08-25T11:07:41;29.70;66.00
23520;DHT22;11936;50.820;4.336;2022-08-25T11:10:13;29.70;64.90
23520;DHT22;11936;50.820;4.336;2022-08-25T11:12:49;29.70;65.00
23520;DHT22;11936;50.820;4.336;2022-08-25T11:15:24;29.70;64.70
23520;DHT22;11936;50.820;4.336;2022-08-25T11:17:57;29.80;65.20
23520;DHT22;11936;50.820;4.336;2022-08-25T11:20:27;29.90;71.70
23520;DHT22;11936;50.820;4.336;2022-08-25T11:25:44;29.80;68.10
23520;DHT22;11936;50.820;4.336;2022-08-25T11:30:36;29.80;67.60
23520;DHT22;11936;50.820;4.336;2022-08-25T11:33:03;29.80;68.00
23520;DHT22;11936;50.820;4.336;2022-08-25T11:35:52;29.80;67.00
23520;DHT22;11936;50.820;4.336;2022-08-25T11:44:18;30.00;67.50
23520;DHT22;11936;50.820;4.336;2022-08-25T11:47:18;30.10;65.80
23520;DHT22;11936;50.820;4.336;2022-08-25T11:49:57;30.10;64.80
23520;DHT22;11936;50.820;4.336;2022-08-25T12:00:59;30.30;65.60
23520;DHT22;11936;50.820;4.336;2022-08-25T12:19:30;30.20;65.60
23520;DHT22;11936;50.820;4.336;2022-08-25T12:35:09;30.20;67.90
23520;DHT22;11936;50.820;4.336;2022-08-25T12:45:49;30.40;66.70
23520;DHT22;11936;50.820;4.336;2022-08-25T12:56:25;30.00;64.90
23520;DHT22;11936;50.820;4.336;2022-08-25T13:04:29;30.10;66.10
23520;DHT22;11936;50.820;4.336;2022-08-25T13:07:18;30.10;67.50
23520;DHT22;11936;50.820;4.336;2022-08-25T13:15:31;30.20;67.70
23520;DHT22;11936;50.820;4.336;2022-08-25T13:18:12;30.20;68.10
23520;DHT22;11936;50.820;4.336;2022-08-25T13:20:38;30.20;67.50
23520;DHT22;11936;50.820;4.336;2022-08-25T13:23:04;30.20;68.10
23520;DHT22;11936;50.820;4.336;2022-08-25T13:25:30;30.20;67.60
23520;DHT22;11936;50.820;4.336;2022-08-25T13:28:02;30.30;66.20
23520;DHT22;11936;50.820;4.336;2022-08-25T13:30:35;30.30;66.60
23520;DHT22;11936;50.820;4.336;2022-08-25T13:33:21;30.30;66.70
23520;DHT22;11936;50.820;4.336;2022-08-25T13:35:53;30.30;68.40
23520;DHT22;11936;50.820;4.336;2022-08-25T13:38:41;30.40;65.20
23520;DHT22;11936;50.820;4.336;2022-08-25T13:41:07;30.40;66.80
23520;DHT22;11936;50.820;4.336;2022-08-25T13:43:34;30.30;68.70
23520;DHT22;11936;50.820;4.336;2022-08-25T13:46:00;30.30;67.90
23520;DHT22;11936;50.820;4.336;2022-08-25T13:48:38;30.30;66.10
23520;DHT22;11936;50.820;4.336;2022-08-25T13:51:15;30.40;67.10
23520;DHT22;11936;50.820;4.336;2022-08-25T13:53:51;30.40;66.70
23520;DHT22;11936;50.820;4.336;2022-08-25T13:56:29;30.40;68.40
23520;DHT22;11936;50.820;4.336;2022-08-25T13:58:57;30.40;66.40
23520;DHT22;11936;50.820;4.336;2022-08-25T14:01:29;30.50;65.50
23520;DHT22;11936;50.820;4.336;2022-08-25T14:04:21;30.70;64.00
23520;DHT22;11936;50.820;4.336;2022-08-25T14:06:48;30.80;68.30
23520;DHT22;11936;50.820;4.336;2022-08-25T14:09:17;30.50;74.60
23520;DHT22;11936;50.820;4.336;2022-08-25T14:11:54;30.40;75.80
23520;DHT22;11936;50.820;4.336;2022-08-25T14:16:58;30.60;75.20
23520;DHT22;11936;50.820;4.336;2022-08-25T14:19:24;30.50;75.60
23520;DHT22;11936;50.820;4.336;2022-08-25T14:21:51;30.30;76.30
23520;DHT22;11936;50.820;4.336;2022-08-25T14:24:19;30.30;76.90
23520;DHT22;11936;50.820;4.336;2022-08-25T14:26:46;30.50;76.40
23520;DHT22;11936;50.820;4.336;2022-08-25T14:29:12;30.50;75.90
23520;DHT22;11936;50.820;4.336;2022-08-25T14:31:40;30.60;75.90
23520;DHT22;11936;50.820;4.336;2022-08-25T14:34:23;30.60;76.00
23520;DHT22;11936;50.820;4.336;2022-08-25T14:36:50;30.50;75.50
23520;DHT22;11936;50.820;4.336;2022-08-25T14:39:17;30.40;76.20
23520;DHT22;11936;50.820;4.336;2022-08-25T14:41:43;30.40;76.20
23520;DHT22;11936;50.820;4.336;2022-08-25T14:44:11;30.20;76.60
23520;DHT22;11936;50.820;4.336;2022-08-25T14:46:57;29.90;77.20
23520;DHT22;11936;50.820;4.336;2022-08-25T14:49:28;29.80;77.00
23520;DHT22;11936;50.820;4.336;2022-08-25T14:52:00;29.80;77.60
23520;DHT22;11936;50.820;4.336;2022-08-25T14:54:29;29.70;77.80
23520;DHT22;11936;50.820;4.336;2022-08-25T14:56:55;29.70;76.70
23520;DHT22;11936;50.820;4.336;2022-08-25T14:59:21;29.70;76.40
23520;DHT22;11936;50.820;4.336;2022-08-25T15:01:47;29.70;76.20
23520;DHT22;11936;50.820;4.336;2022-08-25T15:04:16;29.70;76.20
23520;DHT22;11936;50.820;4.336;2022-08-25T15:06:43;29.70;75.90
23520;DHT22;11936;50.820;4.336;2022-08-25T15:09:13;29.80;76.20
23520;DHT22;11936;50.820;4.336;2022-08-25T15:11:47;29.90;76.20
23520;DHT22;11936;50.820;4.336;2022-08-25T15:14:15;29.90;76.00
23520;DHT22;11936;50.820;4.336;2022-08-25T15:16:43;30.00;78.30
23520;DHT22;11936;50.820;4.336;2022-08-25T15:19:11;29.80;80.10
23520;DHT22;11936;50.820;4.336;2022-08-25T15:21:39;29.90;81.10
23520;DHT22;11936;50.820;4.336;2022-08-25T15:24:06;29.90;81.30
23520;DHT22;11936;50.820;4.336;2022-08-25T15:26:59;29.60;81.40
23520;DHT22;11936;50.820;4.336;2022-08-25T15:29:27;29.70;82.00
23520;DHT22;11936;50.820;4.336;2022-08-25T15:31:55;29.50;83.00
23520;DHT22;11936;50.820;4.336;2022-08-25T15:34:20;29.50;84.70
23520;DHT22;11936;50.820;4.336;2022-08-25T15:36:46;29.60;85.80
23520;DHT22;11936;50.820;4.336;2022-08-25T15:39:12;29.50;86.80
23520;DHT22;11936;50.820;4.336;2022-08-25T15:41:38;29.10;88.00
23520;DHT22;11936;50.820;4.336;2022-08-25T15:44:06;28.90;88.50
23520;DHT22;11936;50.820;4.336;2022-08-25T15:46:32;29.10;89.20
23520;DHT22;11936;50.820;4.336;2022-08-25T15:48:59;29.20;89.60
23520;DHT22;11936;50.820;4.336;2022-08-25T15:51:26;29.30;89.60
23520;DHT22;11936;50.820;4.336;2022-08-25T15:53:53;29.20;89.60
23520;DHT22;11936;50.820;4.336;2022-08-25T15:56:19;29.10;89.90
23520;DHT22;11936;50.820;4.336;2022-08-25T15:58:46;29.00;90.40
23520;DHT22;11936;50.820;4.336;2022-08-25T16:01:14;28.90;90.70
23520;DHT22;11936;50.820;4.336;2022-08-25T16:03:40;28.90;90.50
23520;DHT22;11936;50.820;4.336;2022-08-25T16:06:06;28.70;91.10
23520;DHT22;11936;50.820;4.336;2022-08-25T16:08:31;28.70;91.40
23520;DHT22;11936;50.820;4.336;2022-08-25T16:10:58;28.90;91.20
23520;DHT22;11936;50.820;4.336;2022-08-25T16:13:24;29.10;90.90
23520;DHT22;11936;50.820;4.336;2022-08-25T16:15:50;29.20;90.60
23520;DHT22;11936;50.820;4.336;2022-08-25T16:18:16;29.20;90.80
23520;DHT22;11936;50.820;4.336;2022-08-25T16:20:44;29.20;90.90
23520;DHT22;11936;50.820;4.336;2022-08-25T16:23:11;28.70;91.80
23520;DHT22;11936;50.820;4.336;2022-08-25T16:25:42;28.60;92.40
23520;DHT22;11936;50.820;4.336;2022-08-25T16:28:09;28.20;92.80
23520;DHT22;11936;50.820;4.336;2022-08-25T16:30:36;27.90;93.00
23520;DHT22;11936;50.820;4.336;2022-08-25T16:33:04;27.80;93.20
23520;DHT22;11936;50.820;4.336;2022-08-25T16:35:31;28.00;93.30
23520;DHT22;11936;50.820;4.336;2022-08-25T16:37:56;28.10;93.00
23520;DHT22;11936;50.820;4.336;2022-08-25T16:40:22;28.20;93.00
23520;DHT22;11936;50.820;4.336;2022-08-25T16:42:51;28.30;93.10
23520;DHT22;11936;50.820;4.336;2022-08-25T16:45:20;28.10;93.50
23520;DHT22;11936;50.820;4.336;2022-08-25T16:47:47;28.30;92.90
23520;DHT22;11936;50.820;4.336;2022-08-25T16:50:13;28.20;92.80
23520;DHT22;11936;50.820;4.336;2022-08-25T16:52:39;28.10;93.00
23520;DHT22;11936;50.820;4.336;2022-08-25T16:55:23;28.00;93.50
23520;DHT22;11936;50.820;4.336;2022-08-25T16:57:51;27.90;93.70
23520;DHT22;11936;50.820;4.336;2022-08-25T17:00:23;27.40;95.20
23520;DHT22;11936;50.820;4.336;2022-08-25T17:02:57;27.20;96.10
23520;DHT22;11936;50.820;4.336;2022-08-25T17:05:24;27.20;96.90
23520;DHT22;11936;50.820;4.336;2022-08-25T17:07:49;27.30;97.20
23520;DHT22;11936;50.820;4.336;2022-08-25T17:10:35;27.30;97.60
23520;DHT22;11936;50.820;4.336;2022-08-25T17:13:01;27.30;97.90
23520;DHT22;11936;50.820;4.336;2022-08-25T17:15:27;27.20;97.80
23520;DHT22;11936;50.820;4.336;2022-08-25T17:17:53;27.30;97.60
23520;DHT22;11936;50.820;4.336;2022-08-25T17:20:18;27.20;98.00
23520;DHT22;11936;50.820;4.336;2022-08-25T17:22:44;26.90;98.10
23520;DHT22;11936;50.820;4.336;2022-08-25T17:25:10;26.60;98.70
23520;DHT22;11936;50.820;4.336;2022-08-25T17:27:35;26.70;98.90
23520;DHT22;11936;50.820;4.336;2022-08-25T17:30:02;26.70;99.00
23520;DHT22;11936;50.820;4.336;2022-08-25T17:32:28;26.60;98.50
23520;DHT22;11936;50.820;4.336;2022-08-25T17:34:53;26.60;98.30
23520;DHT22;11936;50.820;4.336;2022-08-25T17:37:19;26.30;98.90
23520;DHT22;11936;50.820;4.336;2022-08-25T17:39:45;26.20;99.50
23520;DHT22;11936;50.820;4.336;2022-08-25T17:42:10;26.20;99.70
23520;DHT22;11936;50.820;4.336;2022-08-25T17:44:36;26.30;99.80
23520;DHT22;11936;50.820;4.336;2022-08-25T17:47:02;26.40;99.80
23520;DHT22;11936;50.820;4.336;2022-08-25T17:49:28;26.40;99.60
23520;DHT22;11936;50.820;4.336;2022-08-25T17:51:53;26.30;99.40
23520;DHT22;11936;50.820;4.336;2022-08-25T17:54:19;26.30;99.00
23520;DHT22;11936;50.820;4.336;2022-08-25T17:56:45;26.50;98.90
23520;DHT22;11936;50.820;4.336;2022-08-25T17:59:11;26.50;98.60
23520;DHT22;11936;50.820;4.336;2022-08-25T18:01:37;26.60;98.60
23520;DHT22;11936;50.820;4.336;2022-08-25T18:04:04;26.50;98.90
23520;DHT22;11936;50.820;4.336;2022-08-25T18:06:30;26.20;99.00